sensor_id;sensor_type;location;lat;lon;timestamp;P1;durP1;ratioP1;P2;durP2;ratioP2
61204;SDS011;47068;55.780;37.520;2023-08-07T00:01:44;6.82;;;3.85;;
61204;SDS011;47068;55.780;37.520;2023-08-07T00:04:09;6.63;;;3.85;;
61204;SDS011;47068;55.780;37.520;2023-08-07T00:06:35;5.75;;;3.80;;
61204;SDS011;47068;55.780;37.520;2023-08-07T00:09:00;5.00;;;3.80;;
61204;SDS011;47068;55.780;37.520;2023-08-07T00:11:25;6.68;;;3.47;;
61204;SDS011;47068;55.780;37.520;2023-08-07T00:13:52;5.78;;;4.30;;
61204;SDS011;47068;55.780;37.520;2023-08-07T00:16:18;7.97;;;4.57;;
61204;SDS011;47068;55.780;37.520;2023-08-07T00:18:43;6.53;;;4.60;;
61204;SDS011;47068;55.780;37.520;2023-08-07T00:21:09;7.50;;;4.40;;
61204;SDS011;47068;55.780;37.520;2023-08-07T00:23:34;4.93;;;4.38;;
61204;SDS011;47068;55.780;37.520;2023-08-07T00:26:00;7.88;;;4.50;;
61204;SDS011;47068;55.780;37.520;2023-08-07T00:28:25;7.65;;;4.78;;
61204;SDS011;47068;55.780;37.520;2023-08-07T00:30:50;5.85;;;4.32;;
61204;SDS011;47068;55.780;37.520;2023-08-07T00:33:16;5.63;;;4.30;;
61204;SDS011;47068;55.780;37.520;2023-08-07T00:35:41;5.80;;;4.43;;
61204;SDS011;47068;55.780;37.520;2023-08-07T00:38:07;6.20;;;4.65;;
61204;SDS011;47068;55.780;37.520;2023-08-07T00:40:36;6.88;;;4.30;;
61204;SDS011;47068;55.780;37.520;2023-08-07T00:43:02;5.30;;;4.30;;
61204;SDS011;47068;55.780;37.520;2023-08-07T00:45:28;5.65;;;4.40;;
61204;SDS011;47068;55.780;37.520;2023-08-07T00:47:53;6.47;;;4.85;;
61204;SDS011;47068;55.780;37.520;2023-08-07T00:50:19;9.35;;;4.53;;
61204;SDS011;47068;55.780;37.520;2023-08-07T00:52:45;8.73;;;4.85;;
61204;SDS011;47068;55.780;37.520;2023-08-07T00:55:11;4.28;;;3.83;;
61204;SDS011;47068;55.780;37.520;2023-08-07T00:57:36;5.38;;;4.45;;
61204;SDS011;47068;55.780;37.520;2023-08-07T01:00:02;7.18;;;4.88;;
61204;SDS011;47068;55.780;37.520;2023-08-07T01:02:28;4.82;;;4.32;;
61204;SDS011;47068;55.780;37.520;2023-08-07T01:04:53;6.95;;;4.03;;
61204;SDS011;47068;55.780;37.520;2023-08-07T01:07:19;5.60;;;4.05;;
61204;SDS011;47068;55.780;37.520;2023-08-07T01:09:44;6.10;;;3.92;;
61204;SDS011;47068;55.780;37.520;2023-08-07T01:12:15;6.95;;;4.30;;
61204;SDS011;47068;55.780;37.520;2023-08-07T01:17:39;4.43;;;3.60;;
61204;SDS011;47068;55.780;37.520;2023-08-07T01:20:09;5.80;;;4.07;;
61204;SDS011;47068;55.780;37.520;2023-08-07T01:22:36;8.68;;;3.58;;
61204;SDS011;47068;55.780;37.520;2023-08-07T01:25:01;7.13;;;4.28;;
61204;SDS011;47068;55.780;37.520;2023-08-07T01:27:30;5.82;;;4.20;;
61204;SDS011;47068;55.780;37.520;2023-08-07T01:35:07;6.43;;;4.50;;
61204;SDS011;47068;55.780;37.520;2023-08-07T01:37:35;7.72;;;4.00;;
61204;SDS011;47068;55.780;37.520;2023-08-07T01:40:03;8.27;;;4.18;;
61204;SDS011;47068;55.780;37.520;2023-08-07T01:42:30;6.88;;;4.20;;
61204;SDS011;47068;55.780;37.520;2023-08-07T01:44:57;5.68;;;4.07;;
61204;SDS011;47068;55.780;37.520;2023-08-07T01:47:23;8.80;;;4.25;;
61204;SDS011;47068;55.780;37.520;2023-08-07T01:49:48;6.43;;;4.45;;
61204;SDS011;47068;55.780;37.520;2023-08-07T01:52:13;5.28;;;4.32;;
61204;SDS011;47068;55.780;37.520;2023-08-07T01:54:39;10.88;;;4.95;;
61204;SDS011;47068;55.780;37.520;2023-08-07T01:57:05;6.10;;;4.60;;
61204;SDS011;47068;55.780;37.520;2023-08-07T01:59:30;7.75;;;4.53;;
61204;SDS011;47068;55.780;37.520;2023-08-07T02:01:56;6.90;;;4.05;;
61204;SDS011;47068;55.780;37.520;2023-08-07T02:04:21;6.75;;;4.40;;
61204;SDS011;47068;55.780;37.520;2023-08-07T02:06:46;7.57;;;4.07;;
61204;SDS011;47068;55.780;37.520;2023-08-07T02:09:12;6.75;;;4.05;;
61204;SDS011;47068;55.780;37.520;2023-08-07T02:11:37;8.85;;;4.22;;
61204;SDS011;47068;55.780;37.520;2023-08-07T02:14:03;5.15;;;3.92;;
61204;SDS011;47068;55.780;37.520;2023-08-07T02:16:28;5.47;;;3.90;;
61204;SDS011;47068;55.780;37.520;2023-08-07T02:18:54;10.02;;;3.50;;
61204;SDS011;47068;55.780;37.520;2023-08-07T02:21:20;8.88;;;4.13;;
61204;SDS011;47068;55.780;37.520;2023-08-07T02:23:45;5.25;;;3.78;;
61204;SDS011;47068;55.780;37.520;2023-08-07T02:26:10;5.03;;;3.55;;
61204;SDS011;47068;55.780;37.520;2023-08-07T02:28:36;6.43;;;3.90;;
61204;SDS011;47068;55.780;37.520;2023-08-07T02:31:01;6.65;;;4.10;;
61204;SDS011;47068;55.780;37.520;2023-08-07T02:33:27;7.22;;;3.75;;
61204;SDS011;47068;55.780;37.520;2023-08-07T02:35:55;8.98;;;4.20;;
61204;SDS011;47068;55.780;37.520;2023-08-07T02:38:20;8.88;;;4.18;;
61204;SDS011;47068;55.780;37.520;2023-08-07T02:40:46;7.03;;;4.32;;
61204;SDS011;47068;55.780;37.520;2023-08-07T02:43:11;5.28;;;3.88;;
61204;SDS011;47068;55.780;37.520;2023-08-07T02:45:37;7.95;;;3.75;;
61204;SDS011;47068;55.780;37.520;2023-08-07T02:48:02;6.05;;;4.25;;
61204;SDS011;47068;55.780;37.520;2023-08-07T02:50:28;6.70;;;4.43;;
61204;SDS011;47068;55.780;37.520;2023-08-07T02:52:57;6.82;;;4.80;;
61204;SDS011;47068;55.780;37.520;2023-08-07T02:55:26;11.88;;;4.25;;
61204;SDS011;47068;55.780;37.520;2023-08-07T02:57:51;10.68;;;4.22;;
61204;SDS011;47068;55.780;37.520;2023-08-07T03:00:17;4.78;;;4.05;;
61204;SDS011;47068;55.780;37.520;2023-08-07T03:02:42;7.88;;;3.95;;
61204;SDS011;47068;55.780;37.520;2023-08-07T03:05:08;5.60;;;3.90;;
61204;SDS011;47068;55.780;37.520;2023-08-07T03:07:33;4.38;;;3.53;;
61204;SDS011;47068;55.780;37.520;2023-08-07T03:09:59;5.47;;;3.65;;
61204;SDS011;47068;55.780;37.520;2023-08-07T03:12:24;9.30;;;4.25;;
61204;SDS011;47068;55.780;37.520;2023-08-07T03:14:50;9.10;;;4.53;;
61204;SDS011;47068;55.780;37.520;2023-08-07T03:17:15;8.10;;;4.03;;
61204;SDS011;47068;55.780;37.520;2023-08-07T03:19:42;8.70;;;4.25;;
61204;SDS011;47068;55.780;37.520;2023-08-07T03:22:08;6.10;;;3.97;;
61204;SDS011;47068;55.780;37.520;2023-08-07T03:24:34;5.95;;;3.70;;
61204;SDS011;47068;55.780;37.520;2023-08-07T03:26:59;7.53;;;3.95;;
61204;SDS011;47068;55.780;37.520;2023-08-07T03:29:24;6.10;;;4.07;;
61204;SDS011;47068;55.780;37.520;2023-08-07T03:31:50;7.30;;;3.53;;
61204;SDS011;47068;55.780;37.520;2023-08-07T03:34:15;6.25;;;3.67;;
61204;SDS011;47068;55.780;37.520;2023-08-07T03:36:41;5.65;;;3.90;;
61204;SDS011;47068;55.780;37.520;2023-08-07T03:39:06;6.75;;;3.85;;
61204;SDS011;47068;55.780;37.520;2023-08-07T03:41:32;8.27;;;3.88;;
61204;SDS011;47068;55.780;37.520;2023-08-07T03:43:58;13.20;;;4.13;;
61204;SDS011;47068;55.780;37.520;2023-08-07T03:46:23;6.45;;;4.32;;
61204;SDS011;47068;55.780;37.520;2023-08-07T03:48:49;6.03;;;3.78;;
61204;SDS011;47068;55.780;37.520;2023-08-07T03:51:14;6.07;;;3.90;;
61204;SDS011;47068;55.780;37.520;2023-08-07T03:53:41;6.82;;;3.83;;
61204;SDS011;47068;55.780;37.520;2023-08-07T03:56:07;6.22;;;3.25;;
61204;SDS011;47068;55.780;37.520;2023-08-07T03:58:32;5.05;;;3.22;;
61204;SDS011;47068;55.780;37.520;2023-08-07T04:00:58;9.50;;;3.63;;
61204;SDS011;47068;55.780;37.520;2023-08-07T04:03:23;6.47;;;3.75;;
61204;SDS011;47068;55.780;37.520;2023-08-07T04:05:52;5.43;;;3.50;;
61204;SDS011;47068;55.780;37.520;2023-08-07T04:08:19;7.97;;;3.60;;
61204;SDS011;47068;55.780;37.520;2023-08-07T04:10:45;4.28;;;3.30;;
61204;SDS011;47068;55.780;37.520;2023-08-07T04:13:10;7.82;;;3.67;;
61204;SDS011;47068;55.780;37.520;2023-08-07T04:15:36;5.28;;;3.22;;
61204;SDS011;47068;55.780;37.520;2023-08-07T04:18:01;8.45;;;3.60;;
61204;SDS011;47068;55.780;37.520;2023-08-07T04:20:27;8.20;;;3.28;;
61204;SDS011;47068;55.780;37.520;2023-08-07T04:22:52;5.00;;;3.45;;
61204;SDS011;47068;55.780;37.520;2023-08-07T04:25:18;4.32;;;3.30;;
61204;SDS011;47068;55.780;37.520;2023-08-07T04:27:43;4.03;;;2.85;;
61204;SDS011;47068;55.780;37.520;2023-08-07T04:30:09;4.05;;;2.95;;
61204;SDS011;47068;55.780;37.520;2023-08-07T04:32:34;4.93;;;3.20;;
61204;SDS011;47068;55.780;37.520;2023-08-07T04:35:00;5.45;;;3.10;;
61204;SDS011;47068;55.780;37.520;2023-08-07T04:37:26;4.70;;;3.28;;
61204;SDS011;47068;55.780;37.520;2023-08-07T04:39:51;9.45;;;3.40;;
61204;SDS011;47068;55.780;37.520;2023-08-07T04:42:17;5.55;;;3.15;;
61204;SDS011;47068;55.780;37.520;2023-08-07T04:44:42;7.47;;;2.90;;
61204;SDS011;47068;55.780;37.520;2023-08-07T04:47:08;7.03;;;3.45;;
61204;SDS011;47068;55.780;37.520;2023-08-07T04:49:34;6.00;;;4.07;;
61204;SDS011;47068;55.780;37.520;2023-08-07T04:51:59;7.03;;;3.72;;
61204;SDS011;47068;55.780;37.520;2023-08-07T04:54:25;9.73;;;4.30;;
61204;SDS011;47068;55.780;37.520;2023-08-07T04:56:50;6.70;;;3.75;;
61204;SDS011;47068;55.780;37.520;2023-08-07T04:59:15;4.10;;;3.63;;
61204;SDS011;47068;55.780;37.520;2023-08-07T05:01:41;3.55;;;3.22;;
61204;SDS011;47068;55.780;37.520;2023-08-07T05:04:06;6.55;;;4.22;;
61204;SDS011;47068;55.780;37.520;2023-08-07T05:06:32;5.65;;;4.20;;
61204;SDS011;47068;55.780;37.520;2023-08-07T05:08:57;5.93;;;3.70;;
61204;SDS011;47068;55.780;37.520;2023-08-07T05:11:23;7.78;;;4.00;;
61204;SDS011;47068;55.780;37.520;2023-08-07T05:13:48;5.65;;;4.70;;
61204;SDS011;47068;55.780;37.520;2023-08-07T05:16:14;5.60;;;5.03;;
61204;SDS011;47068;55.780;37.520;2023-08-07T05:18:39;7.55;;;4.68;;
61204;SDS011;47068;55.780;37.520;2023-08-07T05:21:04;5.78;;;4.43;;
61204;SDS011;47068;55.780;37.520;2023-08-07T05:23:32;6.93;;;4.65;;
61204;SDS011;47068;55.780;37.520;2023-08-07T05:25:57;8.98;;;4.13;;
61204;SDS011;47068;55.780;37.520;2023-08-07T05:28:23;5.63;;;4.25;;
61204;SDS011;47068;55.780;37.520;2023-08-07T05:30:48;5.00;;;4.50;;
61204;SDS011;47068;55.780;37.520;2023-08-07T05:33:13;5.15;;;4.53;;
61204;SDS011;47068;55.780;37.520;2023-08-07T05:35:40;7.15;;;4.93;;
61204;SDS011;47068;55.780;37.520;2023-08-07T05:38:06;8.13;;;4.55;;
61204;SDS011;47068;55.780;37.520;2023-08-07T05:40:31;5.15;;;4.03;;
61204;SDS011;47068;55.780;37.520;2023-08-07T05:42:57;11.48;;;4.25;;
61204;SDS011;47068;55.780;37.520;2023-08-07T05:45:22;7.10;;;4.18;;
61204;SDS011;47068;55.780;37.520;2023-08-07T05:47:48;7.57;;;4.47;;
61204;SDS011;47068;55.780;37.520;2023-08-07T05:50:13;11.35;;;4.30;;
61204;SDS011;47068;55.780;37.520;2023-08-07T05:52:38;4.95;;;4.45;;
61204;SDS011;47068;55.780;37.520;2023-08-07T05:55:04;8.98;;;4.55;;
61204;SDS011;47068;55.780;37.520;2023-08-07T05:57:30;5.00;;;4.50;;
61204;SDS011;47068;55.780;37.520;2023-08-07T05:59:55;8.10;;;4.07;;
61204;SDS011;47068;55.780;37.520;2023-08-07T06:02:21;7.30;;;4.22;;
61204;SDS011;47068;55.780;37.520;2023-08-07T06:04:46;16.30;;;4.05;;
61204;SDS011;47068;55.780;37.520;2023-08-07T06:07:12;4.95;;;4.45;;
61204;SDS011;47068;55.780;37.520;2023-08-07T06:09:37;6.82;;;3.80;;
61204;SDS011;47068;55.780;37.520;2023-08-07T06:12:03;4.90;;;3.95;;
61204;SDS011;47068;55.780;37.520;2023-08-07T06:14:29;6.53;;;4.10;;
61204;SDS011;47068;55.780;37.520;2023-08-07T06:16:55;6.30;;;3.53;;
61204;SDS011;47068;55.780;37.520;2023-08-07T06:19:23;4.85;;;3.53;;
61204;SDS011;47068;55.780;37.520;2023-08-07T06:21:48;5.90;;;3.53;;
61204;SDS011;47068;55.780;37.520;2023-08-07T06:24:14;4.40;;;3.72;;
61204;SDS011;47068;55.780;37.520;2023-08-07T06:26:39;12.85;;;3.63;;
61204;SDS011;47068;55.780;37.520;2023-08-07T06:29:05;6.13;;;3.40;;
61204;SDS011;47068;55.780;37.520;2023-08-07T06:31:30;4.32;;;3.92;;
61204;SDS011;47068;55.780;37.520;2023-08-07T06:33:56;4.22;;;3.67;;
61204;SDS011;47068;55.780;37.520;2023-08-07T06:36:21;8.35;;;3.92;;
61204;SDS011;47068;55.780;37.520;2023-08-07T06:38:47;9.70;;;4.25;;
61204;SDS011;47068;55.780;37.520;2023-08-07T06:41:12;6.25;;;3.97;;
61204;SDS011;47068;55.780;37.520;2023-08-07T06:43:38;4.35;;;3.95;;
61204;SDS011;47068;55.780;37.520;2023-08-07T06:46:03;6.03;;;3.65;;
61204;SDS011;47068;55.780;37.520;2023-08-07T06:48:29;4.95;;;4.45;;
61204;SDS011;47068;55.780;37.520;2023-08-07T06:50:54;6.40;;;4.70;;
61204;SDS011;47068;55.780;37.520;2023-08-07T06:53:20;7.13;;;3.97;;
61204;SDS011;47068;55.780;37.520;2023-08-07T06:55:45;9.30;;;4.75;;
61204;SDS011;47068;55.780;37.520;2023-08-07T06:58:11;4.93;;;4.35;;
61204;SDS011;47068;55.780;37.520;2023-08-07T07:00:36;5.97;;;4.57;;
61204;SDS011;47068;55.780;37.520;2023-08-07T07:03:02;4.85;;;3.72;;
61204;SDS011;47068;55.780;37.520;2023-08-07T07:05:29;5.80;;;3.35;;
61204;SDS011;47068;55.780;37.520;2023-08-07T07:07:55;6.80;;;4.00;;
61204;SDS011;47068;55.780;37.520;2023-08-07T07:10:21;8.18;;;3.85;;
61204;SDS011;47068;55.780;37.520;2023-08-07T07:12:46;4.25;;;3.40;;
61204;SDS011;47068;55.780;37.520;2023-08-07T07:15:12;7.68;;;3.85;;
61204;SDS011;47068;55.780;37.520;2023-08-07T07:17:38;7.50;;;3.97;;
61204;SDS011;47068;55.780;37.520;2023-08-07T07:20:03;4.47;;;4.00;;
61204;SDS011;47068;55.780;37.520;2023-08-07T07:22:29;5.82;;;4.05;;
61204;SDS011;47068;55.780;37.520;2023-08-07T07:24:55;7.53;;;4.50;;
61204;SDS011;47068;55.780;37.520;2023-08-07T07:27:20;13.38;;;4.00;;
61204;SDS011;47068;55.780;37.520;2023-08-07T07:29:47;5.00;;;3.97;;
61204;SDS011;47068;55.780;37.520;2023-08-07T07:32:13;16.15;;;3.85;;
61204;SDS011;47068;55.780;37.520;2023-08-07T07:34:39;5.60;;;4.30;;
61204;SDS011;47068;55.780;37.520;2023-08-07T07:37:04;4.13;;;3.70;;
61204;SDS011;47068;55.780;37.520;2023-08-07T07:39:30;6.28;;;3.30;;
61204;SDS011;47068;55.780;37.520;2023-08-07T07:41:55;4.53;;;3.40;;
61204;SDS011;47068;55.780;37.520;2023-08-07T07:44:21;5.22;;;3.80;;
61204;SDS011;47068;55.780;37.520;2023-08-07T07:46:46;5.90;;;3.75;;
61204;SDS011;47068;55.780;37.520;2023-08-07T07:49:11;8.85;;;3.83;;
61204;SDS011;47068;55.780;37.520;2023-08-07T07:51:37;4.28;;;3.88;;
61204;SDS011;47068;55.780;37.520;2023-08-07T07:54:02;6.18;;;4.10;;
61204;SDS011;47068;55.780;37.520;2023-08-07T07:56:28;7.30;;;4.07;;
61204;SDS011;47068;55.780;37.520;2023-08-07T07:58:53;7.20;;;4.55;;
61204;SDS011;47068;55.780;37.520;2023-08-07T08:01:19;4.45;;;4.05;;
61204;SDS011;47068;55.780;37.520;2023-08-07T08:03:44;4.68;;;3.95;;
61204;SDS011;47068;55.780;37.520;2023-08-07T08:06:13;7.40;;;4.30;;
61204;SDS011;47068;55.780;37.520;2023-08-07T08:08:38;11.93;;;4.57;;
61204;SDS011;47068;55.780;37.520;2023-08-07T08:11:04;5.97;;;4.07;;
61204;SDS011;47068;55.780;37.520;2023-08-07T08:13:30;8.07;;;4.88;;
61204;SDS011;47068;55.780;37.520;2023-08-07T08:15:55;4.60;;;4.15;;
61204;SDS011;47068;55.780;37.520;2023-08-07T08:18:21;6.65;;;4.30;;
61204;SDS011;47068;55.780;37.520;2023-08-07T08:20:46;11.20;;;4.07;;
61204;SDS011;47068;55.780;37.520;2023-08-07T08:23:12;6.60;;;5.05;;
61204;SDS011;47068;55.780;37.520;2023-08-07T08:25:37;4.60;;;3.75;;
61204;SDS011;47068;55.780;37.520;2023-08-07T08:28:03;4.25;;;3.80;;
61204;SDS011;47068;55.780;37.520;2023-08-07T08:30:28;9.25;;;4.35;;
61204;SDS011;47068;55.780;37.520;2023-08-07T08:32:54;16.13;;;3.85;;
61204;SDS011;47068;55.780;37.520;2023-08-07T08:35:20;8.75;;;2.90;;
61204;SDS011;47068;55.780;37.520;2023-08-07T08:37:45;7.30;;;3.05;;
61204;SDS011;47068;55.780;37.520;2023-08-07T08:40:11;4.53;;;3.05;;
61204;SDS011;47068;55.780;37.520;2023-08-07T08:42:44;7.03;;;3.15;;
61204;SDS011;47068;55.780;37.520;2023-08-07T08:45:11;12.15;;;3.78;;
61204;SDS011;47068;55.780;37.520;2023-08-07T08:47:39;7.55;;;3.40;;
61204;SDS011;47068;55.780;37.520;2023-08-07T08:50:10;5.55;;;2.70;;
61204;SDS011;47068;55.780;37.520;2023-08-07T08:52:41;4.00;;;3.13;;
61204;SDS011;47068;55.780;37.520;2023-08-07T08:55:08;5.35;;;3.05;;
61204;SDS011;47068;55.780;37.520;2023-08-07T08:57:34;4.30;;;2.92;;
61204;SDS011;47068;55.780;37.520;2023-08-07T09:00:00;8.90;;;3.53;;
61204;SDS011;47068;55.780;37.520;2023-08-07T09:02:32;3.80;;;2.88;;
61204;SDS011;47068;55.780;37.520;2023-08-07T09:04:58;3.28;;;2.55;;
61204;SDS011;47068;55.780;37.520;2023-08-07T09:07:23;7.53;;;2.83;;
61204;SDS011;47068;55.780;37.520;2023-08-07T09:09:49;5.68;;;2.92;;
61204;SDS011;47068;55.780;37.520;2023-08-07T09:12:23;5.18;;;3.45;;
61204;SDS011;47068;55.780;37.520;2023-08-07T09:17:24;4.53;;;3.30;;
61204;SDS011;47068;55.780;37.520;2023-08-07T09:19:53;5.80;;;2.88;;
61204;SDS011;47068;55.780;37.520;2023-08-07T09:22:18;4.55;;;3.17;;
61204;SDS011;47068;55.780;37.520;2023-08-07T09:24:44;4.28;;;3.20;;
61204;SDS011;47068;55.780;37.520;2023-08-07T09:27:10;6.47;;;3.40;;
61204;SDS011;47068;55.780;37.520;2023-08-07T09:29:36;4.70;;;2.45;;
61204;SDS011;47068;55.780;37.520;2023-08-07T09:32:13;4.20;;;2.53;;
61204;SDS011;47068;55.780;37.520;2023-08-07T09:34:39;3.97;;;3.20;;
61204;SDS011;47068;55.780;37.520;2023-08-07T09:37:06;6.07;;;2.80;;
61204;SDS011;47068;55.780;37.520;2023-08-07T09:39:32;6.50;;;2.92;;
61204;SDS011;47068;55.780;37.520;2023-08-07T09:41:58;4.47;;;2.55;;
61204;SDS011;47068;55.780;37.520;2023-08-07T09:44:23;6.90;;;2.65;;
61204;SDS011;47068;55.780;37.520;2023-08-07T09:46:49;5.53;;;2.88;;
61204;SDS011;47068;55.780;37.520;2023-08-07T09:49:14;7.38;;;2.70;;
61204;SDS011;47068;55.780;37.520;2023-08-07T09:51:46;4.05;;;2.65;;
61204;SDS011;47068;55.780;37.520;2023-08-07T09:54:12;3.50;;;2.55;;
61204;SDS011;47068;55.780;37.520;2023-08-07T09:56:41;5.00;;;2.92;;
61204;SDS011;47068;55.780;37.520;2023-08-07T09:59:12;4.85;;;2.75;;
61204;SDS011;47068;55.780;37.520;2023-08-07T10:01:38;7.35;;;2.88;;
61204;SDS011;47068;55.780;37.520;2023-08-07T10:04:08;6.82;;;3.10;;
61204;SDS011;47068;55.780;37.520;2023-08-07T10:06:36;8.68;;;3.25;;
61204;SDS011;47068;55.780;37.520;2023-08-07T10:09:01;6.07;;;3.17;;
61204;SDS011;47068;55.780;37.520;2023-08-07T10:11:28;3.53;;;2.58;;
61204;SDS011;47068;55.780;37.520;2023-08-07T10:13:55;3.78;;;3.00;;
61204;SDS011;47068;55.780;37.520;2023-08-07T10:16:22;3.83;;;3.42;;
61204;SDS011;47068;55.780;37.520;2023-08-07T10:18:47;3.58;;;3.28;;
61204;SDS011;47068;55.780;37.520;2023-08-07T10:21:13;6.13;;;3.65;;
61204;SDS011;47068;55.780;37.520;2023-08-07T10:23:38;4.55;;;3.50;;
61204;SDS011;47068;55.780;37.520;2023-08-07T10:26:05;3.90;;;3.25;;
61204;SDS011;47068;55.780;37.520;2023-08-07T10:28:35;6.55;;;3.58;;
61204;SDS011;47068;55.780;37.520;2023-08-07T10:31:04;5.80;;;3.63;;
61204;SDS011;47068;55.780;37.520;2023-08-07T10:33:31;3.50;;;3.20;;
61204;SDS011;47068;55.780;37.520;2023-08-07T10:35:57;3.50;;;3.20;;
61204;SDS011;47068;55.780;37.520;2023-08-07T10:38:24;4.30;;;3.70;;
61204;SDS011;47068;55.780;37.520;2023-08-07T10:41:00;5.13;;;3.45;;
61204;SDS011;47068;55.780;37.520;2023-08-07T10:43:26;5.13;;;3.83;;
61204;SDS011;47068;55.780;37.520;2023-08-07T10:45:53;7.40;;;3.58;;
61204;SDS011;47068;55.780;37.520;2023-08-07T10:48:19;4.97;;;3.30;;
61204;SDS011;47068;55.780;37.520;2023-08-07T10:53:36;4.38;;;3.30;;
61204;SDS011;47068;55.780;37.520;2023-08-07T10:56:07;6.20;;;3.45;;
61204;SDS011;47068;55.780;37.520;2023-08-07T10:58:37;5.65;;;3.35;;
61204;SDS011;47068;55.780;37.520;2023-08-07T11:03:53;11.50;;;3.58;;
61204;SDS011;47068;55.780;37.520;2023-08-07T11:06:30;6.60;;;3.50;;
61204;SDS011;47068;55.780;37.520;2023-08-07T11:08:57;7.20;;;3.58;;
61204;SDS011;47068;55.780;37.520;2023-08-07T11:11:23;6.55;;;3.65;;
61204;SDS011;47068;55.780;37.520;2023-08-07T11:13:49;3.78;;;3.33;;
61204;SDS011;47068;55.780;37.520;2023-08-07T11:16:15;3.97;;;3.50;;
61204;SDS011;47068;55.780;37.520;2023-08-07T11:18:41;3.95;;;3.65;;
61204;SDS011;47068;55.780;37.520;2023-08-07T11:21:08;4.13;;;3.70;;
61204;SDS011;47068;55.780;37.520;2023-08-07T11:23:36;4.22;;;3.83;;
61204;SDS011;47068;55.780;37.520;2023-08-07T11:26:02;3.97;;;3.50;;
61204;SDS011;47068;55.780;37.520;2023-08-07T11:28:30;9.13;;;4.28;;
61204;SDS011;47068;55.780;37.520;2023-08-07T11:30:56;3.03;;;2.70;;
61204;SDS011;47068;55.780;37.520;2023-08-07T11:33:26;3.00;;;2.33;;
61204;SDS011;47068;55.780;37.520;2023-08-07T11:35:53;3.42;;;3.10;;
61204;SDS011;47068;55.780;37.520;2023-08-07T11:38:32;10.63;;;2.70;;
61204;SDS011;47068;55.780;37.520;2023-08-07T11:41:02;3.40;;;2.90;;
61204;SDS011;47068;55.780;37.520;2023-08-07T11:43:29;7.85;;;3.08;;
61204;SDS011;47068;55.780;37.520;2023-08-07T11:46:00;6.47;;;2.75;;
61204;SDS011;47068;55.780;37.520;2023-08-07T11:48:28;8.27;;;2.83;;
61204;SDS011;47068;55.780;37.520;2023-08-07T11:50:55;4.57;;;3.08;;
61204;SDS011;47068;55.780;37.520;2023-08-07T11:53:22;7.82;;;2.88;;
61204;SDS011;47068;55.780;37.520;2023-08-07T11:55:56;2.83;;;2.40;;
61204;SDS011;47068;55.780;37.520;2023-08-07T11:58:23;6.50;;;3.47;;
61204;SDS011;47068;55.780;37.520;2023-08-07T12:00:50;4.80;;;2.97;;
61204;SDS011;47068;55.780;37.520;2023-08-07T12:06:04;3.70;;;2.90;;
61204;SDS011;47068;55.780;37.520;2023-08-07T12:08:31;5.32;;;3.63;;
61204;SDS011;47068;55.780;37.520;2023-08-07T12:11:02;3.75;;;2.83;;
61204;SDS011;47068;55.780;37.520;2023-08-07T12:13:29;4.82;;;3.03;;
61204;SDS011;47068;55.780;37.520;2023-08-07T12:15:57;3.47;;;2.78;;
61204;SDS011;47068;55.780;37.520;2023-08-07T12:18:23;4.15;;;2.80;;
61204;SDS011;47068;55.780;37.520;2023-08-07T12:20:51;4.43;;;3.85;;
61204;SDS011;47068;55.780;37.520;2023-08-07T12:23:18;6.90;;;3.85;;
61204;SDS011;47068;55.780;37.520;2023-08-07T12:25:46;6.20;;;3.90;;
61204;SDS011;47068;55.780;37.520;2023-08-07T12:28:11;4.90;;;3.85;;
61204;SDS011;47068;55.780;37.520;2023-08-07T12:30:37;4.47;;;3.63;;
61204;SDS011;47068;55.780;37.520;2023-08-07T12:33:03;8.55;;;3.55;;
61204;SDS011;47068;55.780;37.520;2023-08-07T12:35:30;5.72;;;3.50;;
61204;SDS011;47068;55.780;37.520;2023-08-07T12:37:56;4.60;;;3.75;;
61204;SDS011;47068;55.780;37.520;2023-08-07T12:40:21;6.47;;;4.05;;
61204;SDS011;47068;55.780;37.520;2023-08-07T12:42:48;7.60;;;3.80;;
61204;SDS011;47068;55.780;37.520;2023-08-07T12:45:14;7.60;;;3.70;;
61204;SDS011;47068;55.780;37.520;2023-08-07T12:47:41;3.53;;;3.22;;
61204;SDS011;47068;55.780;37.520;2023-08-07T12:50:07;7.10;;;3.78;;
61204;SDS011;47068;55.780;37.520;2023-08-07T12:52:33;3.50;;;3.20;;
61204;SDS011;47068;55.780;37.520;2023-08-07T12:54:59;7.75;;;3.88;;
61204;SDS011;47068;55.780;37.520;2023-08-07T12:57:25;7.63;;;3.70;;
61204;SDS011;47068;55.780;37.520;2023-08-07T12:59:51;4.35;;;3.95;;
61204;SDS011;47068;55.780;37.520;2023-08-07T13:02:17;3.58;;;3.20;;
61204;SDS011;47068;55.780;37.520;2023-08-07T13:04:42;6.57;;;3.83;;
61204;SDS011;47068;55.780;37.520;2023-08-07T13:07:08;4.30;;;3.63;;
61204;SDS011;47068;55.780;37.520;2023-08-07T13:09:33;3.75;;;3.33;;
61204;SDS011;47068;55.780;37.520;2023-08-07T13:11:58;4.82;;;3.50;;
61204;SDS011;47068;55.780;37.520;2023-08-07T13:14:24;8.15;;;4.05;;
61204;SDS011;47068;55.780;37.520;2023-08-07T13:16:50;4.15;;;3.72;;
61204;SDS011;47068;55.780;37.520;2023-08-07T13:19:16;3.80;;;3.30;;
61204;SDS011;47068;55.780;37.520;2023-08-07T13:21:41;3.50;;;3.13;;
61204;SDS011;47068;55.780;37.520;2023-08-07T13:24:07;4.25;;;3.70;;
61204;SDS011;47068;55.780;37.520;2023-08-07T13:26:32;8.52;;;3.95;;
61204;SDS011;47068;55.780;37.520;2023-08-07T13:28:58;3.92;;;3.60;;
61204;SDS011;47068;55.780;37.520;2023-08-07T13:31:23;2.65;;;1.90;;
61204;SDS011;47068;55.780;37.520;2023-08-07T13:33:49;3.15;;;2.40;;
61204;SDS011;47068;55.780;37.520;2023-08-07T13:36:14;3.47;;;2.60;;
61204;SDS011;47068;55.780;37.520;2023-08-07T13:38:40;5.57;;;2.72;;
61204;SDS011;47068;55.780;37.520;2023-08-07T13:41:05;2.90;;;2.42;;
61204;SDS011;47068;55.780;37.520;2023-08-07T13:43:31;5.28;;;3.00;;
61204;SDS011;47068;55.780;37.520;2023-08-07T13:45:57;5.35;;;2.70;;
61204;SDS011;47068;55.780;37.520;2023-08-07T13:48:23;4.68;;;2.63;;
61204;SDS011;47068;55.780;37.520;2023-08-07T13:50:52;4.10;;;2.80;;
61204;SDS011;47068;55.780;37.520;2023-08-07T13:53:18;7.88;;;3.00;;
61204;SDS011;47068;55.780;37.520;2023-08-07T13:55:45;5.30;;;2.42;;
61204;SDS011;47068;55.780;37.520;2023-08-07T13:58:12;4.15;;;2.75;;
61204;SDS011;47068;55.780;37.520;2023-08-07T14:00:40;2.72;;;2.42;;
61204;SDS011;47068;55.780;37.520;2023-08-07T14:03:07;3.30;;;2.58;;
61204;SDS011;47068;55.780;37.520;2023-08-07T14:05:34;3.55;;;2.88;;
61204;SDS011;47068;55.780;37.520;2023-08-07T14:08:00;3.67;;;2.88;;
61204;SDS011;47068;55.780;37.520;2023-08-07T14:10:25;3.95;;;2.50;;
61204;SDS011;47068;55.780;37.520;2023-08-07T14:12:51;6.50;;;2.50;;
61204;SDS011;47068;55.780;37.520;2023-08-07T14:15:16;3.17;;;2.65;;
61204;SDS011;47068;55.780;37.520;2023-08-07T14:17:42;4.05;;;2.70;;
61204;SDS011;47068;55.780;37.520;2023-08-07T14:20:07;5.38;;;3.15;;
61204;SDS011;47068;55.780;37.520;2023-08-07T14:22:33;4.97;;;3.30;;
61204;SDS011;47068;55.780;37.520;2023-08-07T14:25:01;5.03;;;2.80;;
61204;SDS011;47068;55.780;37.520;2023-08-07T14:27:27;9.27;;;3.53;;
61204;SDS011;47068;55.780;37.520;2023-08-07T14:29:52;5.60;;;3.60;;
61204;SDS011;47068;55.780;37.520;2023-08-07T14:32:18;4.45;;;3.83;;
61204;SDS011;47068;55.780;37.520;2023-08-07T14:34:43;4.97;;;3.58;;
61204;SDS011;47068;55.780;37.520;2023-08-07T14:37:10;4.45;;;3.55;;
61204;SDS011;47068;55.780;37.520;2023-08-07T14:39:36;3.55;;;3.13;;
61204;SDS011;47068;55.780;37.520;2023-08-07T14:42:01;4.03;;;3.50;;
61204;SDS011;47068;55.780;37.520;2023-08-07T14:44:27;6.32;;;3.95;;
61204;SDS011;47068;55.780;37.520;2023-08-07T14:46:54;3.80;;;3.40;;